Artemas, Pennsylvania
Current Conditions -  °F | °C
As of 5:33 AM on Thursday 23 Oct 2014 (Local Time) from KCBE Reporting Station
Broken Clouds Broken Clouds  
Wind Chill: 50°   Ceiling: 2700
Heat Index: 50°   Visibility: 10mi
Dew Point: 41°   Wind: 10mph
Humidity: 71%   Direction: 340°NNW
Pressure: 30.07"   Gusts: 20mph
Location:  39.75°N, 78.44°W
Report Text: KCBE 230933Z AUTO 34009G17KT 10SM BKN027 BKN036 BKN090 10/05 A3007 RMK AO1
Loading
Personal Weather Stations






























Interactive Weather Map New forecast layout! Learn more

10-Day Weather Forecast

Advertisements
Track Severe Weather on mobile